Time;durP1;ratioP1;P1;durP2;ratioP2;P2;SDS_P1;SDS_P2;PMS_P1;PMS_P2;Temp;Humidity;BMP_temperature;BMP_pressure;BME280_temperature;BME280_humidity;BME280_pressure;Samples;Min_cycle;Max_cycle;Signal;HPM_P1;HPM_P2
2021/05/18 00:00:58;;;;;;;2.30;1.98;;;16.50;66.40;;;;;;5116485;28;20457;-81
2021/05/18 00:03:24;;;;;;;3.17;1.98;;;16.50;66.40;;;;;;5098368;28;20511;-82
2021/05/18 00:05:54;;;;;;;3.78;1.70;;;16.50;66.40;;;;;;5116941;28;20407;-81
2021/05/18 00:08:23;;;;;;;2.67;2.05;;;16.50;66.30;;;;;;5098516;28;20039;-82
2021/05/18 00:13:41;;;;;;;2.50;1.95;;;16.50;66.30;;;;;;5116080;28;20396;-81
2021/05/18 00:16:08;;;;;;;2.97;2.20;;;16.40;66.30;;;;;;5116680;28;20035;-81
2021/05/18 00:18:36;;;;;;;2.53;2.15;;;16.40;66.30;;;;;;5116365;28;20043;-83
2021/05/18 00:21:04;;;;;;;2.75;2.05;;;16.40;66.30;;;;;;5116200;28;20058;-82
2021/05/18 00:23:31;;;;;;;2.42;2.00;;;16.40;66.20;;;;;;5098484;28;20035;-82
2021/05/18 00:25:57;;;;;;;5.35;2.00;;;16.40;66.10;;;;;;5098075;28;20073;-80
2021/05/18 00:28:23;;;;;;;2.42;1.83;;;16.40;66.10;;;;;;5098047;28;20036;-81
2021/05/18 00:30:49;;;;;;;2.60;2.25;;;16.40;66.10;;;;;;5098541;28;20054;-82
2021/05/18 00:33:18;;;;;;;3.10;1.90;;;16.40;66.10;;;;;;5116012;28;20051;-81
2021/05/18 00:35:45;;;;;;;2.60;1.80;;;16.40;66.10;;;;;;5116001;28;20043;-83
2021/05/18 00:38:13;;;;;;;3.20;2.20;;;16.40;66.10;;;;;;5115762;28;20064;-80
2021/05/18 00:40:39;;;;;;;2.47;1.90;;;16.40;66.00;;;;;;5115851;28;20039;-80
2021/05/18 00:43:05;;;;;;;2.75;2.40;;;16.40;65.90;;;;;;5097913;28;20110;-81
2021/05/18 00:45:38;;;;;;;3.50;2.10;;;16.40;66.00;;;;;;5098162;28;20027;-80
2021/05/18 00:48:06;;;;;;;2.60;1.83;;;16.40;66.00;;;;;;5081899;28;20138;-82
2021/05/18 00:50:33;;;;;;;2.20;2.00;;;16.40;66.00;;;;;;5115486;28;20074;-82
2021/05/18 00:53:00;;;;;;;3.00;2.10;;;16.40;66.00;;;;;;5098006;28;20164;-81
2021/05/18 01:00:41;;;;;;;4.10;1.40;;;16.40;66.00;;;;;;5115792;28;20106;-79
2021/05/18 01:03:07;;;;;;;2.45;1.92;;;16.30;65.90;;;;;;5115329;28;20043;-81
2021/05/18 01:08:17;;;;;;;2.72;2.20;;;16.30;66.40;;;;;;5115549;28;20100;-82
2021/05/18 01:10:44;;;;;;;2.63;1.92;;;16.30;65.90;;;;;;5115584;28;20048;-81
2021/05/18 01:13:11;;;;;;;2.33;1.75;;;16.30;65.80;;;;;;5116032;28;20036;-80
2021/05/18 01:15:38;;;;;;;2.55;1.80;;;16.30;65.80;;;;;;5115495;28;20477;-81
2021/05/18 01:18:05;;;;;;;2.83;1.90;;;16.30;65.80;;;;;;5115923;28;20054;-81
2021/05/18 01:20:36;;;;;;;3.15;1.92;;;16.30;65.80;;;;;;5115264;28;20032;-80
2021/05/18 01:23:02;;;;;;;2.72;1.92;;;16.30;65.80;;;;;;5115759;28;20043;-82
2021/05/18 01:25:28;;;;;;;3.50;2.15;;;16.30;65.80;;;;;;5097130;28;20073;-82
2021/05/18 01:27:54;;;;;;;2.33;1.90;;;16.30;65.80;;;;;;5115527;28;20071;-80
2021/05/18 01:30:21;;;;;;;2.75;2.03;;;16.30;65.80;;;;;;5098006;28;20086;-79
2021/05/18 01:32:47;;;;;;;3.28;2.40;;;16.30;65.90;;;;;;5097180;28;20119;-80
2021/05/18 01:35:13;;;;;;;2.78;2.17;;;16.30;65.80;;;;;;5115082;28;20078;-81
2021/05/18 01:37:41;;;;;;;3.25;2.22;;;16.20;65.80;;;;;;5097281;28;20047;-83
2021/05/18 01:42:57;;;;;;;2.42;1.92;;;16.30;65.90;;;;;;5115013;28;20392;-80
2021/05/18 01:45:32;;;;;;;2.63;1.80;;;16.20;65.80;;;;;;5097233;28;20059;-81
2021/05/18 01:48:05;;;;;;;2.95;2.08;;;16.20;65.80;;;;;;5115248;28;20035;-80
2021/05/18 01:50:31;;;;;;;2.78;1.92;;;16.20;65.80;;;;;;5080945;28;20450;-83
2021/05/18 01:52:58;;;;;;;2.33;1.42;;;16.20;65.80;;;;;;5097020;28;20365;-81
2021/05/18 01:55:34;;;;;;;2.20;1.67;;;16.20;65.80;;;;;;5097205;28;20130;-82
2021/05/18 01:58:00;;;;;;;2.45;2.00;;;16.20;65.80;;;;;;5100569;28;20059;-81
2021/05/18 02:00:30;;;;;;;2.38;2.03;;;16.20;65.80;;;;;;5119043;28;20085;-79
2021/05/18 02:02:56;;;;;;;2.58;1.92;;;16.20;65.70;;;;;;5101122;28;20028;-81
2021/05/18 02:05:26;;;;;;;3.40;1.98;;;16.20;66.30;;;;;;5118784;28;20028;-82
2021/05/18 02:07:59;;;;;;;2.40;1.70;;;16.20;65.80;;;;;;5100969;28;20088;-80
2021/05/18 02:10:26;;;;;;;3.08;2.05;;;16.20;65.70;;;;;;5101327;28;20122;-80
2021/05/18 02:12:54;;;;;;;3.75;2.42;;;16.20;65.70;;;;;;5100474;28;20051;-81
2021/05/18 02:20:56;;;;;;;3.50;2.13;;;16.20;65.60;;;;;;5118471;28;20112;-81
2021/05/18 02:26:06;;;;;;;3.00;2.03;;;16.20;65.70;;;;;;5118696;28;20046;-80
2021/05/18 02:28:32;;;;;;;2.55;1.85;;;16.10;65.60;;;;;;5118248;28;20031;-81
2021/05/18 02:30:58;;;;;;;2.45;2.22;;;16.20;65.70;;;;;;5083997;28;20442;-82
2021/05/18 02:33:27;;;;;;;3.80;2.20;;;16.10;65.60;;;;;;5118149;28;20466;-82
2021/05/18 02:35:52;;;;;;;2.33;2.10;;;16.20;65.70;;;;;;5100948;28;20039;-82
2021/05/18 02:38:18;;;;;;;3.80;2.08;;;16.10;65.60;;;;;;5100286;28;20461;-82
2021/05/18 02:40:45;;;;;;;2.40;1.90;;;16.20;65.70;;;;;;5100171;28;20127;-82
2021/05/18 02:43:15;;;;;;;3.50;2.28;;;16.10;65.60;;;;;;5118041;28;20069;-79
2021/05/18 02:50:52;;;;;;;2.70;2.20;;;16.10;65.60;;;;;;5118122;28;20097;-81
2021/05/18 02:53:18;;;;;;;2.20;1.80;;;16.10;65.70;;;;;;5100277;28;20035;-80
2021/05/18 02:58:31;;;;;;;2.33;1.77;;;16.10;65.60;;;;;;5117495;28;20044;-81
2021/05/18 03:00:57;;;;;;;3.50;2.25;;;16.10;65.60;;;;;;5099625;28;20039;-81
2021/05/18 03:03:23;;;;;;;2.60;2.10;;;16.10;65.60;;;;;;5100101;28;20127;-81
2021/05/18 03:05:49;;;;;;;2.58;1.83;;;16.10;65.60;;;;;;5099600;28;20066;-79
2021/05/18 03:08:15;;;;;;;2.63;1.85;;;16.10;65.60;;;;;;5100224;28;20100;-83
2021/05/18 03:10:41;;;;;;;4.25;2.00;;;16.10;65.60;;;;;;5117300;28;20476;-81
2021/05/18 03:13:07;;;;;;;2.80;2.40;;;16.10;65.60;;;;;;5117423;28;20074;-79
2021/05/18 03:15:33;;;;;;;2.47;2.05;;;16.10;65.70;;;;;;5099564;28;20039;-82
2021/05/18 03:17:59;;;;;;;2.80;2.03;;;16.00;65.60;;;;;;5099515;28;20073;-83
2021/05/18 03:20:26;;;;;;;2.63;2.10;;;16.00;65.60;;;;;;5117350;28;20035;-80
2021/05/18 03:22:53;;;;;;;4.20;2.20;;;16.00;65.70;;;;;;5099433;28;20067;-81
2021/05/18 03:25:19;;;;;;;2.63;2.35;;;16.00;65.60;;;;;;5099409;28;20070;-82
2021/05/18 03:27:45;;;;;;;2.70;2.03;;;16.00;65.60;;;;;;5099477;28;20039;-80
2021/05/18 03:35:37;;;;;;;2.53;2.05;;;16.00;65.50;;;;;;5117020;28;20114;-80
2021/05/18 03:38:21;;;;;;;4.25;2.22;;;16.00;65.50;;;;;;5116792;28;20378;-80
2021/05/18 03:40:54;;;;;;;2.67;2.10;;;16.00;65.50;;;;;;5099416;28;20044;-81
2021/05/18 03:43:37;;;;;;;2.67;2.27;;;16.00;65.50;;;;;;5098944;28;20495;-81
2021/05/18 04:04:57;;;;;;;2.40;1.90;;;16.00;65.40;;;;;;5116213;28;20044;-79
2021/05/18 04:10:26;;;;;;;2.25;2.05;;;16.00;65.50;;;;;;5116811;28;20047;-79
2021/05/18 04:13:16;;;;;;;2.67;2.13;;;16.00;65.50;;;;;;5098391;28;20134;-81
2021/05/18 04:18:26;;;;;;;2.88;1.95;;;16.00;65.50;;;;;;5116194;28;20058;-81
2021/05/18 04:20:58;;;;;;;2.08;1.73;;;16.00;65.50;;;;;;5081244;28;20043;-79
2021/05/18 04:39:56;;;;;;;2.47;1.70;;;15.90;65.50;;;;;;5116185;28;20044;-79
2021/05/18 04:53:31;;;;;;;3.80;3.33;;;16.00;65.00;;;;;;5115523;28;20039;-84
2021/05/18 05:06:59;;;;;;;7.95;2.45;;;16.00;65.70;;;;;;5115317;28;20445;-83
2021/05/18 05:09:30;;;;;;;5.78;2.63;;;16.10;65.80;;;;;;5115246;28;20031;-81
2021/05/18 05:14:41;;;;;;;7.80;3.33;;;16.20;65.50;;;;;;5115816;28;20036;-76
2021/05/18 05:17:07;;;;;;;9.35;2.55;;;16.10;65.90;;;;;;5115583;28;20043;-72
2021/05/18 05:19:36;;;;;;;6.82;2.20;;;16.20;67.00;;;;;;5115739;28;20039;-79
2021/05/18 05:22:04;;;;;;;6.22;2.03;;;16.30;67.50;;;;;;5115370;28;20346;-81
2021/05/18 05:24:32;;;;;;;5.15;3.28;;;16.50;67.70;;;;;;5115432;28;20044;-79
2021/05/18 05:27:00;;;;;;;6.43;2.28;;;16.40;66.00;;;;;;5115141;28;20047;-76
2021/05/18 05:29:26;;;;;;;6.60;2.33;;;16.40;66.30;;;;;;5115135;28;20120;-79
2021/05/18 05:32:01;;;;;;;8.00;2.22;;;16.40;67.80;;;;;;5098900;28;20057;-85
2021/05/18 05:34:27;;;;;;;5.82;2.30;;;16.50;68.90;;;;;;5119359;28;20449;-81
2021/05/18 05:36:53;;;;;;;3.17;2.00;;;16.60;69.00;;;;;;5101545;28;20035;-81
2021/05/18 05:39:24;;;;;;;10.80;2.55;;;16.60;69.10;;;;;;5101804;28;20118;-80
2021/05/18 05:41:56;;;;;;;4.97;1.90;;;16.70;69.50;;;;;;5101584;28;20069;-79
2021/05/18 05:44:24;;;;;;;5.88;1.77;;;16.80;69.60;;;;;;5119465;28;20071;-80
2021/05/18 05:46:50;;;;;;;3.72;1.85;;;16.90;69.50;;;;;;5101463;28;20043;-79
2021/05/18 05:49:16;;;;;;;4.60;1.90;;;16.90;69.40;;;;;;5101329;28;20050;-81
2021/05/18 05:51:42;;;;;;;3.85;2.20;;;16.90;69.40;;;;;;5101064;28;20043;-81
2021/05/18 05:54:08;;;;;;;7.18;2.65;;;16.90;67.80;;;;;;5101047;28;20112;-77
2021/05/18 05:56:34;;;;;;;9.50;3.22;;;16.80;66.70;;;;;;5101739;28;20043;-77
2021/05/18 05:59:03;;;;;;;5.88;2.75;;;16.70;66.80;;;;;;5118858;28;20392;-78
2021/05/18 06:01:37;;;;;;;3.95;2.40;;;16.60;66.90;;;;;;5102328;28;20032;-78
2021/05/18 06:04:04;;;;;;;6.72;2.08;;;16.60;66.90;;;;;;5101043;28;20127;-80
2021/05/18 06:06:30;;;;;;;7.97;1.90;;;16.60;67.50;;;;;;5101364;28;20032;-77
2021/05/18 06:08:56;;;;;;;9.77;2.60;;;16.80;68.40;;;;;;5084828;28;20058;-78
2021/05/18 06:42:03;;;;;;;3.60;1.23;;;18.00;65.20;;;;;;4980694;28;20121;-73
2021/05/18 06:55:36;;;;;;;4.53;1.60;;;18.00;65.70;;;;;;4918582;29;20530;-77
2021/05/18 07:09:29;;;;;;;7.53;1.60;;;17.70;66.50;;;;;;4766661;30;20043;-78
2021/05/18 07:12:52;;;;;;;8.88;2.03;;;17.70;66.70;;;;;;4739821;30;20445;-81
2021/05/18 07:15:49;;;;;;;5.05;1.50;;;17.70;66.60;;;;;;4735712;30;20410;-80
2021/05/18 07:18:19;;;;;;;8.30;1.88;;;17.70;67.00;;;;;;4754620;30;20059;-78
2021/05/18 07:21:14;;;;;;;6.63;1.70;;;17.60;67.00;;;;;;4818993;29;20046;-80
2021/05/18 07:23:42;;;;;;;10.18;2.10;;;17.60;67.20;;;;;;4910376;29;20479;-80
2021/05/18 07:26:14;;;;;;;7.22;2.13;;;17.60;67.00;;;;;;4932215;29;20094;-79
2021/05/18 07:28:40;;;;;;;12.65;2.17;;;17.50;65.90;;;;;;4956838;28;20057;-79
2021/05/18 07:31:06;;;;;;;10.98;2.90;;;17.50;66.10;;;;;;5017718;28;20029;-80
2021/05/18 07:33:33;;;;;;;9.52;1.67;;;17.50;66.20;;;;;;5017890;28;20410;-79
2021/05/18 07:36:08;;;;;;;5.60;1.88;;;17.50;66.20;;;;;;5001617;28;20049;-80
2021/05/18 07:38:42;;;;;;;6.70;1.85;;;17.50;66.40;;;;;;5001654;28;20041;-79
2021/05/18 07:41:11;;;;;;;9.43;2.30;;;17.40;67.00;;;;;;5057816;28;20044;-80
2021/05/18 07:43:37;;;;;;;4.95;1.73;;;17.50;66.60;;;;;;5058555;28;20048;-79
2021/05/18 07:46:05;;;;;;;5.95;2.50;;;17.40;67.20;;;;;;5058382;28;20454;-79
2021/05/18 08:06:13;;;;;;;8.10;2.78;;;17.50;68.00;;;;;;5075560;28;20379;-85
2021/05/18 08:08:40;;;;;;;5.25;2.40;;;17.50;67.60;;;;;;5040788;28;20082;-77
2021/05/18 08:11:10;;;;;;;5.57;3.15;;;17.60;66.60;;;;;;5070746;28;20033;-80
2021/05/18 08:14:08;;;;;;;4.40;2.42;;;17.60;65.30;;;;;;5074048;28;20036;-80
2021/05/18 09:38:04;;;;;;;3.50;2.60;;;17.30;57.10;;;;;;5077170;28;20043;-77
2021/05/18 09:49:58;;;;;;;4.43;2.53;;;17.30;56.60;;;;;;5094560;28;20032;-78
2021/05/18 10:35:42;;;;;;;14.73;6.00;;;17.40;60.50;;;;;;5060160;28;20436;-80
2021/05/18 10:38:34;;;;;;;13.65;6.00;;;17.40;60.90;;;;;;5061301;28;20041;-78
2021/05/18 10:41:57;;;;;;;12.25;5.72;;;17.40;60.80;;;;;;5059761;28;20035;-78
2021/05/18 10:45:37;;;;;;;9.38;4.40;;;17.40;60.80;;;;;;5021171;28;20128;-78
2021/05/18 10:48:52;;;;;;;5.43;3.53;;;17.50;60.50;;;;;;4948310;29;20043;-78
2021/05/18 10:54:59;;;;;;;6.80;3.33;;;17.40;59.50;;;;;;5060521;28;20055;-79
2021/05/18 10:57:31;;;;;;;3.00;2.58;;;17.40;59.20;;;;;;5049060;28;20450;-78
2021/05/18 11:00:37;;;;;;;4.07;2.55;;;17.40;58.60;;;;;;5043004;28;20052;-78
2021/05/18 11:03:56;;;;;;;3.05;2.47;;;17.30;58.30;;;;;;5060909;28;20131;-79
2021/05/18 11:06:22;;;;;;;2.45;2.05;;;17.50;58.00;;;;;;5059945;28;20466;-75
2021/05/18 11:27:50;;;;;;;5.38;1.83;;;17.40;58.70;;;;;;4955780;28;20049;-77
2021/05/18 11:30:26;;;;;;;2.75;1.52;;;17.40;58.60;;;;;;5030706;28;20442;-79
2021/05/18 11:33:01;;;;;;;9.70;2.20;;;17.40;58.80;;;;;;5076276;28;20067;-81
2021/05/18 11:35:30;;;;;;;9.73;2.33;;;17.40;58.80;;;;;;5083286;28;20457;-82
2021/05/18 11:38:00;;;;;;;8.82;2.20;;;17.40;58.90;;;;;;5094049;28;20028;-78
2021/05/18 11:40:26;;;;;;;5.60;2.25;;;17.40;59.10;;;;;;5077570;28;20062;-77
2021/05/18 11:42:52;;;;;;;6.43;2.10;;;17.40;59.20;;;;;;5078480;28;20028;-77
2021/05/18 11:45:19;;;;;;;6.38;2.22;;;17.40;59.10;;;;;;5096357;28;20042;-78
2021/05/18 11:47:54;;;;;;;7.13;2.20;;;17.40;59.10;;;;;;5068894;28;20031;-81
2021/05/18 11:50:26;;;;;;;2.65;1.90;;;17.40;59.00;;;;;;5078648;28;20097;-78
2021/05/18 11:52:53;;;;;;;4.25;2.45;;;17.40;59.20;;;;;;5075711;28;20051;-78
2021/05/18 11:55:31;;;;;;;5.20;2.33;;;17.40;59.20;;;;;;5058142;28;20558;-79
2021/05/18 11:58:02;;;;;;;7.10;2.10;;;17.40;59.40;;;;;;5059562;28;20028;-80
2021/05/18 12:00:39;;;;;;;4.40;2.00;;;17.40;59.60;;;;;;5058249;28;20036;-80
2021/05/18 12:03:12;;;;;;;5.65;2.10;;;17.40;59.70;;;;;;5041784;28;20393;-79
2021/05/18 12:05:51;;;;;;;4.65;2.30;;;17.40;59.90;;;;;;5082128;28;20054;-77
2021/05/18 12:08:31;;;;;;;6.50;2.08;;;17.40;59.90;;;;;;5086822;28;20043;-79
2021/05/18 12:11:19;;;;;;;1.92;1.67;;;17.40;60.00;;;;;;5058296;28;20064;-78
2021/05/18 12:13:49;;;;;;;6.88;1.88;;;17.50;60.20;;;;;;5091467;28;20123;-80
2021/05/18 12:16:17;;;;;;;3.63;1.85;;;17.50;60.20;;;;;;5062449;28;20032;-78
2021/05/18 12:18:44;;;;;;;3.88;1.30;;;17.50;60.20;;;;;;5058023;28;20056;-78
2021/05/18 12:21:19;;;;;;;4.32;1.80;;;17.40;60.20;;;;;;5074011;28;20031;-77
2021/05/18 12:24:04;;;;;;;3.38;1.60;;;17.40;60.20;;;;;;5073295;28;20032;-79
2021/05/18 12:26:31;;;;;;;3.63;1.45;;;17.50;60.40;;;;;;5077886;28;20040;-78
2021/05/18 12:29:03;;;;;;;5.53;1.73;;;17.50;60.50;;;;;;5064133;28;20090;-79
2021/05/18 12:31:31;;;;;;;5.47;1.83;;;17.50;60.50;;;;;;5057413;28;20036;-79
2021/05/18 12:33:57;;;;;;;5.13;1.80;;;17.50;60.60;;;;;;5074980;28;20024;-78
2021/05/18 12:36:24;;;;;;;2.30;1.45;;;17.50;60.60;;;;;;5077977;28;20083;-78
2021/05/18 12:39:09;;;;;;;2.67;1.92;;;17.50;60.60;;;;;;5093910;28;20055;-80
2021/05/18 12:41:56;;;;;;;2.85;1.70;;;17.40;60.60;;;;;;5078600;28;20039;-79
2021/05/18 12:44:27;;;;;;;2.15;1.20;;;17.50;60.70;;;;;;5080241;28;20032;-79
2021/05/18 12:47:05;;;;;;;3.55;1.50;;;17.50;60.80;;;;;;5064003;28;20155;-79
2021/05/18 12:49:33;;;;;;;4.57;1.88;;;17.50;60.90;;;;;;5057684;28;20119;-79
2021/05/18 12:52:09;;;;;;;2.05;1.15;;;17.50;60.90;;;;;;5075551;28;20033;-77
2021/05/18 12:54:56;;;;;;;3.78;1.40;;;17.50;61.00;;;;;;5088747;28;20458;-79
2021/05/18 12:57:27;;;;;;;3.90;1.38;;;17.50;61.00;;;;;;5069600;28;20035;-79
2021/05/18 13:00:24;;;;;;;2.03;1.42;;;17.50;61.00;;;;;;5076347;28;20304;-74
2021/05/18 13:02:53;;;;;;;4.25;1.70;;;17.50;61.10;;;;;;5087737;28;20113;-80
2021/05/18 13:05:33;;;;;;;13.77;2.45;;;17.50;61.10;;;;;;5057215;28;20032;-76
2021/05/18 13:08:37;;;;;;;4.68;2.47;;;17.50;61.10;;;;;;5082690;28;20470;-78
2021/05/18 13:11:09;;;;;;;18.30;9.45;;;17.50;60.80;;;;;;5065036;28;20477;-77
2021/05/18 13:14:22;;;;;;;25.65;9.57;;;17.50;61.60;;;;;;5062348;28;20052;-77
2021/05/18 13:16:50;;;;;;;24.42;8.77;;;17.50;63.50;;;;;;5069596;28;20151;-73
2021/05/18 13:19:18;;;;;;;20.02;7.47;;;17.50;62.50;;;;;;5085668;28;20062;-76
2021/05/18 13:22:01;;;;;;;14.65;7.60;;;17.60;62.60;;;;;;5102625;28;20519;-76
2021/05/18 13:27:11;;;;;;;15.35;7.93;;;17.50;61.30;;;;;;5096049;28;20043;-79
2021/05/18 13:29:37;;;;;;;22.23;9.73;;;17.50;61.90;;;;;;5079500;28;20036;-77
2021/05/18 13:32:10;;;;;;;18.83;9.43;;;17.60;63.30;;;;;;5055845;28;20058;-78
2021/05/18 13:34:36;;;;;;;17.25;7.80;;;17.60;64.30;;;;;;5094171;28;20039;-76
2021/05/18 13:37:14;;;;;;;14.23;6.90;;;17.60;64.20;;;;;;5077472;28;20064;-79
2021/05/18 13:39:42;;;;;;;15.48;7.47;;;17.60;64.20;;;;;;5058262;28;20423;-81
2021/05/18 13:42:15;;;;;;;16.35;7.15;;;17.60;63.90;;;;;;5060807;28;20037;-80
2021/05/18 13:44:44;;;;;;;10.23;6.15;;;17.60;63.70;;;;;;5040505;28;20036;-81
2021/05/18 13:47:19;;;;;;;12.50;6.22;;;17.60;63.60;;;;;;5040246;28;20047;-81
2021/05/18 13:49:45;;;;;;;13.80;5.32;;;17.60;63.60;;;;;;5075179;28;20115;-79
2021/05/18 13:52:15;;;;;;;19.67;6.10;;;17.60;63.40;;;;;;5074755;28;20055;-80
2021/05/18 13:54:41;;;;;;;14.20;5.47;;;17.60;63.00;;;;;;5080842;28;20043;-79
2021/05/18 14:04:56;;;;;;;9.52;4.10;;;17.60;62.10;;;;;;5097939;28;20118;-79
2021/05/18 14:34:00;;;;;;;5.68;3.33;;;17.60;63.00;;;;;;4916395;29;20379;-79
2021/05/18 14:54:07;;;;;;;5.75;2.88;;;17.60;64.00;;;;;;4973561;28;20413;-80
2021/05/18 14:56:42;;;;;;;12.95;2.78;;;17.60;64.00;;;;;;5015790;28;20504;-80
2021/05/18 14:59:09;;;;;;;9.65;3.05;;;17.60;64.10;;;;;;5057062;28;20088;-78
2021/05/18 15:01:36;;;;;;;7.25;2.83;;;17.60;64.30;;;;;;5054716;28;20044;-79
2021/05/18 15:04:03;;;;;;;10.05;3.55;;;17.60;64.20;;;;;;5043515;28;20048;-81
2021/05/18 15:06:31;;;;;;;8.80;3.38;;;17.60;64.20;;;;;;5046720;28;20095;-80
2021/05/18 15:08:57;;;;;;;8.88;3.20;;;17.60;64.10;;;;;;5039387;28;20112;-82
2021/05/18 15:11:26;;;;;;;11.65;3.33;;;17.70;64.00;;;;;;5031343;28;20034;-82
2021/05/18 15:22:04;;;;;;;12.98;3.60;;;17.70;64.00;;;;;;5057142;28;20035;-80
2021/05/18 15:24:30;;;;;;;13.55;3.85;;;17.70;64.20;;;;;;5056909;28;20033;-83
2021/05/18 15:27:00;;;;;;;13.75;3.78;;;17.70;64.20;;;;;;5055209;28;20337;-78
2021/05/18 15:30:05;;;;;;;14.85;4.90;;;17.70;64.40;;;;;;5039755;28;20455;-81
2021/05/18 15:36:13;;;;;;;20.35;4.22;;;17.70;63.60;;;;;;5061187;28;20031;-81
2021/05/18 15:42:20;;;;;;;14.85;4.22;;;17.80;64.20;;;;;;5063020;28;20462;-81
2021/05/18 15:49:02;;;;;;;15.82;5.13;;;17.80;63.80;;;;;;5055011;28;20037;-81
2021/05/18 15:51:33;;;;;;;22.42;4.63;;;17.60;63.80;;;;;;5039479;28;20444;-78
2021/05/18 15:54:06;;;;;;;13.83;4.20;;;17.80;64.20;;;;;;5038468;28;20448;-80
2021/05/18 15:56:41;;;;;;;14.77;4.05;;;17.70;64.20;;;;;;5050914;28;20440;-81
2021/05/18 15:59:19;;;;;;;20.17;4.82;;;17.80;64.50;;;;;;5058150;28;20428;-80
2021/05/18 16:01:45;;;;;;;23.20;4.07;;;17.70;64.90;;;;;;5028276;28;20036;-79
2021/05/18 16:04:12;;;;;;;15.13;4.30;;;17.70;65.10;;;;;;5038457;28;20048;-80
2021/05/18 16:06:44;;;;;;;18.15;4.47;;;17.70;65.10;;;;;;5038300;28;20068;-83
2021/05/18 16:09:19;;;;;;;16.80;4.00;;;17.70;66.00;;;;;;5055503;28;20067;-79
2021/05/18 16:11:44;;;;;;;22.67;4.13;;;17.70;65.60;;;;;;5056094;28;20033;-78
2021/05/18 16:14:21;;;;;;;20.42;4.78;;;17.70;66.30;;;;;;5052251;28;20047;-81
2021/05/18 16:16:50;;;;;;;16.55;4.20;;;17.70;67.30;;;;;;5075123;28;20036;-79
2021/05/18 16:19:26;;;;;;;16.67;3.90;;;17.80;68.00;;;;;;5093696;28;20031;-80
2021/05/18 16:21:52;;;;;;;19.92;3.17;;;17.80;69.80;;;;;;5077657;28;20108;-79
2021/05/18 16:25:02;;;;;;;12.98;3.28;;;17.80;69.70;;;;;;5095378;28;20060;-81
2021/05/18 16:27:46;;;;;;;15.93;3.28;;;17.80;70.70;;;;;;5079056;28;20341;-79
2021/05/18 16:30:16;;;;;;;15.45;3.15;;;17.90;70.70;;;;;;5053773;28;20044;-79
2021/05/18 16:32:41;;;;;;;13.88;3.05;;;17.90;70.10;;;;;;5094599;28;20031;-78
2021/05/18 16:35:33;;;;;;;12.27;2.80;;;17.90;70.40;;;;;;5063176;28;20485;-78
2021/05/18 16:38:03;;;;;;;10.80;3.15;;;17.90;70.90;;;;;;5075241;28;20390;-78
2021/05/18 16:40:35;;;;;;;11.45;2.20;;;17.90;70.40;;;;;;5058548;28;20472;-78
2021/05/18 16:43:01;;;;;;;14.35;2.95;;;17.90;70.10;;;;;;5064066;28;20024;-76
2021/05/18 16:45:27;;;;;;;9.20;2.70;;;17.90;70.00;;;;;;5063396;28;20047;-77
2021/05/18 16:47:56;;;;;;;13.38;3.03;;;17.90;70.10;;;;;;5077072;28;20055;-80
2021/05/18 16:50:24;;;;;;;6.53;2.25;;;18.00;69.80;;;;;;5086287;28;20043;-79
2021/05/18 16:53:00;;;;;;;7.28;2.47;;;17.90;69.50;;;;;;5041502;28;20059;-78
2021/05/18 16:55:27;;;;;;;9.85;2.33;;;17.90;69.80;;;;;;5072448;28;20055;-78
2021/05/18 16:58:25;;;;;;;9.25;1.92;;;17.90;69.70;;;;;;5077605;28;20035;-80
2021/05/18 17:01:12;;;;;;;9.88;1.85;;;18.00;69.40;;;;;;5077318;28;20032;-79
2021/05/18 17:03:57;;;;;;;10.70;2.13;;;18.00;69.10;;;;;;5078029;28;20031;-78
2021/05/18 17:06:26;;;;;;;8.68;1.95;;;18.00;68.80;;;;;;5078132;28;20039;-79
2021/05/18 17:08:56;;;;;;;9.20;2.28;;;18.00;69.30;;;;;;5060071;28;20043;-80
2021/05/18 17:11:28;;;;;;;9.43;1.85;;;18.00;69.40;;;;;;5078185;28;20114;-80
2021/05/18 17:13:56;;;;;;;7.68;2.47;;;18.00;69.30;;;;;;5076768;28;20124;-78
2021/05/18 17:16:33;;;;;;;6.60;1.73;;;18.00;69.60;;;;;;5061516;28;20494;-79
2021/05/18 17:18:59;;;;;;;9.93;2.47;;;18.00;69.70;;;;;;5045889;28;20496;-79
2021/05/18 17:25:15;;;;;;;9.05;1.90;;;18.00;69.90;;;;;;5056839;28;20044;-79
2021/05/18 17:27:55;;;;;;;8.23;1.40;;;18.00;69.90;;;;;;5049007;28;20127;-79
2021/05/18 17:30:42;;;;;;;6.00;1.83;;;18.00;69.40;;;;;;5064933;28;20356;-79
2021/05/18 17:33:28;;;;;;;6.72;1.55;;;18.00;69.10;;;;;;5082050;28;20123;-79
2021/05/18 17:36:20;;;;;;;3.95;1.63;;;18.00;69.10;;;;;;5075988;28;20038;-79
2021/05/18 17:39:29;;;;;;;4.93;1.58;;;18.00;68.80;;;;;;5050913;28;20048;-79
2021/05/18 17:42:11;;;;;;;4.22;1.25;;;17.90;68.70;;;;;;5042080;28;20067;-79
2021/05/18 17:45:07;;;;;;;;;;;;;;;;;;;;;
2021/05/18 17:48:05;;;;;;;5.22;1.35;;;17.90;68.60;;;;;;5079808;28;20036;-79
2021/05/18 17:50:58;;;;;;;4.82;1.50;;;17.90;68.50;;;;;;5078842;28;20051;-79
2021/05/18 17:54:26;;;;;;;4.53;1.42;;;17.90;68.40;;;;;;5061508;28;20044;-79
2021/05/18 17:57:26;;;;;;;6.78;1.23;;;17.80;68.10;;;;;;5060911;28;20385;-79
2021/05/18 18:04:13;;;;;;;;;;;;;;;;;;;;;
2021/05/18 18:07:08;;;;;;;3.63;1.23;;;17.90;67.90;;;;;;5078031;28;20024;-81
2021/05/18 18:09:57;;;;;;;1.75;1.17;;;17.80;67.80;;;;;;5077126;28;20032;-79
2021/05/18 18:12:40;;;;;;;1.88;1.00;;;17.80;67.80;;;;;;5044369;28;20442;-79
2021/05/18 18:15:45;;;;;;;3.10;1.10;;;17.80;67.70;;;;;;5061870;28;20056;-79
2021/05/18 18:18:39;;;;;;;2.58;1.33;;;17.80;67.60;;;;;;5059235;28;20057;-79
2021/05/18 18:21:42;;;;;;;5.18;1.33;;;17.80;67.60;;;;;;5056751;28;20040;-79
2021/05/18 18:24:37;;;;;;;4.18;1.10;;;17.70;67.50;;;;;;5046904;28;20040;-78
2021/05/18 18:27:34;;;;;;;3.28;1.05;;;17.70;67.40;;;;;;5061718;28;20040;-79
2021/05/18 18:30:14;;;;;;;2.45;0.90;;;17.80;67.40;;;;;;5076139;28;20087;-79
2021/05/18 18:32:40;;;;;;;3.17;0.95;;;17.80;67.30;;;;;;5039129;28;20068;-79
2021/05/18 18:35:11;;;;;;;5.05;1.40;;;17.80;67.30;;;;;;5032702;28;20060;-79
2021/05/18 18:37:42;;;;;;;2.22;1.40;;;17.80;67.50;;;;;;5023014;28;20076;-78
2021/05/18 18:40:13;;;;;;;3.28;0.80;;;17.80;67.80;;;;;;5041518;28;20040;-79
2021/05/18 18:42:58;;;;;;;3.42;1.02;;;17.80;67.70;;;;;;5076223;28;20044;-79
2021/05/18 18:46:21;;;;;;;5.07;0.90;;;17.80;67.30;;;;;;5059623;28;20040;-80
2021/05/18 18:49:39;;;;;;;2.42;0.95;;;17.90;67.40;;;;;;5022119;28;20049;-80
2021/05/18 18:56:22;;;;;;;2.65;0.80;;;17.80;67.60;;;;;;5002489;28;20049;-79
2021/05/18 18:59:17;;;;;;;3.90;1.13;;;17.80;67.30;;;;;;5025772;28;20060;-79
2021/05/18 19:02:55;;;;;;;2.20;1.13;;;17.80;66.90;;;;;;5052880;28;20051;-79
2021/05/18 19:09:45;;;;;;;2.08;0.80;;;17.80;67.30;;;;;;5056913;28;20180;-80
2021/05/18 19:12:48;;;;;;;5.20;0.73;;;17.80;67.30;;;;;;5041924;28;20056;-78
2021/05/18 19:15:15;;;;;;;4.55;1.15;;;17.80;67.30;;;;;;5050863;28;20049;-81
2021/05/18 19:21:59;;;;;;;3.10;0.90;;;17.90;67.20;;;;;;5076461;28;20094;-79
